Terminal Aerodrome Forecast
Issued by NWS Twin Cities, MN

Home | Current Version | Previous Version | Text Only | Print | Product List | Glossary Off
Versions: 1 2 3 4 5 6 7 8 9 10 11 12 13 14 15 16

058
FTUS43 KMPX 041120
TAFEAU
TAF
KEAU 041120Z 0412/0512 20003KT P6SM OVC070
     FM041800 20006KT 4SM -SN BR OVC018
      TEMPO 0419/0422 2SM -SN BR OVC010
     FM042300 26005KT P6SM OVC022
     FM050400 27003KT P6SM SCT025=

USA.gov is the U.S. government's official web portal to all federal, state and local government web resources and services.